Time;durP1;ratioP1;P1;durP2;ratioP2;P2;SDS_P1;SDS_P2;PMS_P1;PMS_P2;Temp;Humidity;BMP_temperature;BMP_pressure;BME280_temperature;BME280_humidity;BME280_pressure;Samples;Min_cycle;Max_cycle;Signal;HPM_P1;HPM_P2
2024/03/23 00:01:50;;;;;;;12.32;11.10;;;;;;;29.61;73.73;100926.28;5027787;28;65880;-32
2024/03/23 00:04:20;;;;;;;17.75;11.10;;;;;;;29.64;73.50;100930.44;5028426;28;70407;-31
2024/03/23 00:06:50;;;;;;;11.85;10.80;;;;;;;29.66;73.47;100933.78;5020051;28;66194;-32
2024/03/23 00:09:21;;;;;;;10.82;10.13;;;;;;;29.72;73.57;100953.72;5017784;28;70205;-31
2024/03/23 00:11:51;;;;;;;12.98;10.35;;;;;;;29.73;74.04;100948.13;4993726;28;66280;-32
2024/03/23 00:14:21;;;;;;;10.80;9.73;;;;;;;29.75;74.16;100954.13;5017492;28;69239;-31
2024/03/23 00:16:51;;;;;;;11.63;10.30;;;;;;;29.76;74.64;100961.22;5022110;28;66207;-32
2024/03/23 00:19:21;;;;;;;12.45;10.40;;;;;;;29.80;76.73;100973.25;5026722;28;69553;-32
2024/03/23 00:21:54;;;;;;;13.95;10.90;;;;;;;29.83;77.08;100972.81;5019553;28;66097;-31
2024/03/23 00:24:25;;;;;;;12.27;11.15;;;;;;;29.89;77.90;100971.16;5026041;28;69924;-32
2024/03/23 00:26:54;;;;;;;14.40;11.68;;;;;;;29.92;79.60;100975.31;5022198;28;66141;-31
2024/03/23 00:29:24;;;;;;;15.25;11.25;;;;;;;29.93;79.10;100985.09;5023420;28;70687;-31
2024/03/23 00:31:55;;;;;;;21.20;11.95;;;;;;;29.93;79.23;100977.00;5016319;28;66013;-31
2024/03/23 00:34:25;;;;;;;23.67;12.63;;;;;;;30.00;79.58;100989.44;4987066;28;69985;-31
2024/03/23 00:36:55;;;;;;;19.83;11.23;;;;;;;30.03;79.45;100994.44;5023758;28;66383;-31
2024/03/23 00:39:24;;;;;;;17.55;12.05;;;;;;;30.02;79.64;100997.34;5024509;28;70607;-30
2024/03/23 00:41:55;;;;;;;13.38;12.10;;;;;;;30.09;78.47;100998.19;5022515;28;66739;-31
2024/03/23 00:44:25;;;;;;;32.17;14.27;;;;;;;30.10;79.90;100999.81;5003991;28;70447;-31
2024/03/23 00:46:55;;;;;;;36.22;16.08;;;;;;;30.15;81.22;101015.44;5032889;28;66365;-31
2024/03/23 00:49:25;;;;;;;38.35;15.70;;;;;;;30.17;81.11;101010.63;5020857;28;70032;-33
2024/03/23 00:51:54;;;;;;;32.63;16.80;;;;;;;30.17;82.11;101016.88;5008074;28;66026;-31
2024/03/23 00:54:23;;;;;;;32.25;18.02;;;;;;;30.23;81.26;101010.66;5016817;28;70518;-31
2024/03/23 00:56:53;;;;;;;49.60;18.52;;;;;;;30.28;81.90;101010.00;5012763;28;66383;-31
2024/03/23 00:59:26;;;;;;;37.47;17.60;;;;;;;30.27;82.41;101017.28;4993995;28;69750;-32
2024/03/23 01:01:55;;;;;;;37.10;18.00;;;;;;;30.31;82.27;101016.84;5002258;28;66484;-33
2024/03/23 01:04:24;;;;;;;35.05;17.58;;;;;;;30.32;84.13;101015.81;5020087;28;70528;-31
2024/03/23 01:06:53;;;;;;;31.65;16.85;;;;;;;30.34;83.16;101016.44;5011700;28;65008;-31
2024/03/23 01:09:22;;;;;;;31.90;16.75;;;;;;;30.38;83.26;101023.09;5010132;28;70266;-31
2024/03/23 01:11:51;;;;;;;24.63;16.05;;;;;;;30.39;83.33;101016.63;5024151;28;66464;-32
2024/03/23 01:14:20;;;;;;;35.08;16.13;;;;;;;30.42;83.43;101018.91;5021043;28;70168;-31
2024/03/23 01:16:49;;;;;;;23.80;16.60;;;;;;;30.45;83.83;101024.72;5016286;28;66913;-32
2024/03/23 01:19:18;;;;;;;24.20;14.95;;;;;;;30.48;83.19;101028.88;5017159;28;70534;-31
2024/03/23 01:21:49;;;;;;;32.50;15.68;;;;;;;30.49;83.80;101025.13;5001781;28;66301;-31
2024/03/23 01:24:18;;;;;;;22.48;15.15;;;;;;;30.52;83.89;101029.28;4999600;28;70007;-31
2024/03/23 01:26:47;;;;;;;19.42;15.07;;;;;;;30.55;83.78;101035.09;5035015;28;66535;-31
2024/03/23 01:29:16;;;;;;;24.40;14.95;;;;;;;30.56;84.12;101031.31;4988320;28;70354;-31
2024/03/23 01:31:45;;;;;;;21.70;14.10;;;;;;;30.57;84.04;101033.00;5016423;28;66534;-33
2024/03/23 01:34:17;;;;;;;19.77;13.68;;;;;;;30.63;84.15;101026.72;5011713;28;69912;-33
2024/03/23 01:36:46;;;;;;;20.90;14.10;;;;;;;30.66;83.29;101025.47;5017899;28;64481;-35
2024/03/23 01:39:15;;;;;;;15.05;13.52;;;;;;;30.68;84.43;101034.22;4996544;28;68706;-33
2024/03/23 01:41:49;;;;;;;15.02;13.57;;;;;;;30.69;84.23;101028.56;5017118;28;66561;-31
2024/03/23 01:44:19;;;;;;;18.42;13.43;;;;;;;30.69;83.58;101023.16;5018368;28;70306;-31
2024/03/23 01:46:48;;;;;;;21.77;14.63;;;;;;;30.72;85.10;101020.00;4989636;28;66677;-31
2024/03/23 01:49:17;;;;;;;21.27;14.30;;;;;;;30.73;84.38;101027.09;5024105;28;70236;-32
2024/03/23 01:51:46;;;;;;;19.05;14.20;;;;;;;30.81;84.88;101033.34;5025336;28;66215;-33
2024/03/23 01:54:15;;;;;;;21.92;14.32;;;;;;;30.86;84.79;101030.81;5021480;28;69938;-33
2024/03/23 01:56:44;;;;;;;27.65;14.52;;;;;;;30.85;83.70;101024.56;5036588;28;66409;-32
2024/03/23 01:59:13;;;;;;;22.90;14.88;;;;;;;30.93;85.82;101020.78;5015740;28;70062;-33
2024/03/23 02:01:42;;;;;;;22.80;14.65;;;;;;;30.97;84.45;101022.00;5017489;28;66107;-35
2024/03/23 02:04:11;;;;;;;21.92;14.25;;;;;;;30.97;84.85;101024.72;5037971;28;70127;-32
2024/03/23 02:06:40;;;;;;;31.50;14.43;;;;;;;30.99;84.13;101024.50;5028207;28;65808;-31
2024/03/23 02:09:09;;;;;;;25.00;14.38;;;;;;;31.05;85.21;101029.88;5054141;28;69676;-32
2024/03/23 02:11:38;;;;;;;24.65;13.65;;;;;;;31.03;85.39;101031.97;4995494;28;66142;-32
2024/03/23 02:14:07;;;;;;;23.00;13.75;;;;;;;31.09;84.70;101036.53;5037629;28;68884;-36
2024/03/23 02:16:36;;;;;;;15.20;13.43;;;;;;;30.94;85.93;101011.59;5026225;28;66735;-32
2024/03/23 02:19:05;;;;;;;20.50;12.32;;;;;;;31.14;85.06;101039.38;5034547;28;70475;-32
2024/03/23 02:21:34;;;;;;;13.93;11.73;;;;;;;31.15;85.23;101051.91;5025988;28;65643;-33
2024/03/23 02:24:04;;;;;;;20.67;13.10;;;;;;;31.10;84.90;101045.47;5048045;28;70484;-35
2024/03/23 02:26:32;;;;;;;19.23;12.88;;;;;;;31.22;85.46;101051.84;5047068;28;66931;-33
2024/03/23 02:29:01;;;;;;;17.85;12.23;;;;;;;31.32;83.73;101056.81;5021893;28;70215;-32
2024/03/23 02:31:30;;;;;;;15.85;11.95;;;;;;;31.38;83.95;101055.97;5034739;28;66392;-33
2024/03/23 02:33:59;;;;;;;14.40;12.23;;;;;;;31.42;83.52;101054.44;5027538;28;70661;-32
2024/03/23 02:36:31;;;;;;;16.10;12.45;;;;;;;31.45;83.22;101051.28;5002084;28;66066;-35
2024/03/23 02:39:00;;;;;;;15.90;11.73;;;;;;;31.49;82.86;101055.25;5019183;28;70601;-31
2024/03/23 02:41:28;;;;;;;15.02;11.60;;;;;;;31.53;83.00;101053.75;5019132;28;65329;-34
2024/03/23 02:43:57;;;;;;;15.18;12.10;;;;;;;31.54;82.82;101050.00;5031189;28;69558;-31
2024/03/23 02:46:26;;;;;;;13.85;12.43;;;;;;;31.60;82.92;101053.69;5027505;28;66307;-32
2024/03/23 02:48:56;;;;;;;13.63;11.98;;;;;;;31.58;82.54;101050.38;5027796;28;70145;-33
2024/03/23 02:51:25;;;;;;;17.13;12.23;;;;;;;31.65;82.69;101055.72;5032369;28;65459;-33
2024/03/23 02:53:54;;;;;;;12.13;11.02;;;;;;;31.70;82.14;101056.72;5044538;28;70557;-30
2024/03/23 02:56:23;;;;;;;13.57;12.10;;;;;;;31.74;82.29;101054.41;5014026;28;66230;-34
2024/03/23 02:58:52;;;;;;;12.93;11.75;;;;;;;31.75;82.03;101050.66;5017752;28;69887;-33
2024/03/23 03:01:21;;;;;;;12.55;11.25;;;;;;;31.80;82.02;101053.53;5033922;28;66911;-33
2024/03/23 03:03:50;;;;;;;13.82;10.98;;;;;;;31.84;81.99;101054.72;5024607;28;70496;-34
2024/03/23 03:06:26;;;;;;;12.93;11.70;;;;;;;31.88;82.48;101057.84;5001111;28;64535;-31
2024/03/23 03:08:55;;;;;;;14.43;11.57;;;;;;;31.89;81.87;101052.19;5000013;28;69200;-35
2024/03/23 03:11:24;;;;;;;17.85;11.57;;;;;;;31.95;81.61;101051.31;5001208;28;67099;-32
2024/03/23 03:13:53;;;;;;;12.55;11.40;;;;;;;31.98;81.50;101042.75;5009352;28;70651;-33
2024/03/23 03:16:22;;;;;;;15.95;11.32;;;;;;;32.02;81.58;101035.81;5037024;28;66463;-34
2024/03/23 03:18:52;;;;;;;13.27;10.52;;;;;;;32.05;81.39;101040.78;5034810;28;70031;-32
2024/03/23 03:21:21;;;;;;;12.25;10.55;;;;;;;32.08;81.42;101030.53;5021563;28;65534;-33
2024/03/23 03:23:50;;;;;;;12.77;11.40;;;;;;;32.13;81.43;101038.84;5028314;28;69509;-38
2024/03/23 03:26:20;;;;;;;12.18;10.90;;;;;;;32.17;81.11;101031.91;5041747;28;65461;-31
2024/03/23 03:28:50;;;;;;;14.88;11.23;;;;;;;32.13;80.96;101026.09;5019134;28;69733;-33
2024/03/23 03:31:19;;;;;;;12.73;11.50;;;;;;;32.22;81.08;101030.16;5030726;28;65509;-35
2024/03/23 03:33:51;;;;;;;12.43;11.32;;;;;;;32.08;81.13;100989.84;5016857;28;70810;-35
2024/03/23 03:36:20;;;;;;;12.13;11.02;;;;;;;32.28;80.80;101023.00;5022985;28;66216;-33
2024/03/23 03:38:49;;;;;;;13.13;11.57;;;;;;;32.35;80.90;101023.75;5018487;28;70156;-31
2024/03/23 03:41:19;;;;;;;12.63;11.00;;;;;;;32.38;80.57;101012.44;5014761;28;66674;-32
2024/03/23 03:43:48;;;;;;;11.77;10.77;;;;;;;32.40;80.72;101004.91;5023971;28;69154;-34
2024/03/23 03:46:17;;;;;;;13.15;10.63;;;;;;;32.44;80.77;101005.28;5009838;28;65731;-33
2024/03/23 03:48:47;;;;;;;13.52;11.23;;;;;;;32.45;80.30;100996.88;5031578;28;70684;-32
2024/03/23 03:51:16;;;;;;;12.18;11.05;;;;;;;32.51;80.33;100999.78;5031895;28;66899;-35
2024/03/23 03:53:45;;;;;;;18.98;12.68;;;;;;;32.49;80.35;100995.41;5034917;28;69709;-32
2024/03/23 03:56:15;;;;;;;15.88;12.52;;;;;;;32.56;80.31;100991.78;5031724;28;66802;-33
2024/03/23 03:58:43;;;;;;;22.50;14.50;;;;;;;32.56;80.61;100991.78;5038744;28;69087;-33
2024/03/23 04:01:12;;;;;;;20.88;15.02;;;;;;;32.62;80.38;100986.25;5027404;28;66403;-32
2024/03/23 04:03:43;;;;;;;25.27;14.80;;;;;;;32.62;81.32;100990.84;5003717;28;70070;-33
2024/03/23 04:06:18;;;;;;;30.93;16.47;;;;;;;32.57;81.18;100982.56;5026350;28;65994;-34
2024/03/23 04:08:48;;;;;;;20.85;15.23;;;;;;;32.58;80.92;100974.19;5013834;28;69391;-32
2024/03/23 04:11:17;;;;;;;49.30;24.52;;;;;;;32.61;81.15;100983.78;5025652;28;66576;-34
2024/03/23 04:13:47;;;;;;;36.08;17.67;;;;;;;32.64;80.48;100977.88;5023794;28;70186;-33
2024/03/23 04:16:30;;;;;;;22.38;14.73;;;;;;;32.41;80.05;100919.69;5004465;28;65491;-34
2024/03/23 04:18:59;;;;;;;20.98;13.93;;;;;;;32.69;79.81;100964.44;5025152;28;69909;-33
2024/03/23 04:21:28;;;;;;;28.67;13.93;;;;;;;32.71;79.70;100965.06;5030540;28;66813;-33
2024/03/23 04:23:57;;;;;;;27.83;12.15;;;;;;;32.75;79.45;100955.38;5022995;28;70019;-32
2024/03/23 04:26:26;;;;;;;17.52;11.55;;;;;;;32.75;79.74;100944.50;5034042;28;67047;-33
2024/03/23 04:28:56;;;;;;;30.20;18.50;;;;;;;32.78;79.37;100935.88;5018295;28;70539;-33
2024/03/23 04:31:24;;;;;;;22.17;15.13;;;;;;;32.76;79.41;100927.13;5000429;28;65912;-33
2024/03/23 04:33:53;;;;;;;17.67;12.55;;;;;;;32.83;79.46;100938.75;5030097;28;70353;-33
2024/03/23 04:36:22;;;;;;;15.98;11.60;;;;;;;32.85;79.33;100931.19;5024709;28;65898;-33
2024/03/23 04:38:52;;;;;;;16.92;11.20;;;;;;;32.98;78.98;100913.84;5017725;28;69560;-34
2024/03/23 04:41:21;;;;;;;17.23;11.60;;;;;;;33.07;79.04;100917.06;5014679;28;66720;-33
2024/03/23 04:43:50;;;;;;;14.23;12.13;;;;;;;33.06;79.00;100912.69;5020253;28;69005;-33
2024/03/23 04:46:20;;;;;;;14.60;12.20;;;;;;;32.97;78.75;100885.00;5019371;28;65622;-34
2024/03/23 04:48:49;;;;;;;12.40;10.88;;;;;;;33.12;78.72;100899.00;5030215;28;70482;-33
2024/03/23 04:51:23;;;;;;;13.32;10.95;;;;;;;33.20;78.68;100900.53;5023382;28;66403;-32
2024/03/23 04:53:52;;;;;;;12.68;10.68;;;;;;;33.22;78.16;100903.03;5008614;28;69914;-32
2024/03/23 04:56:21;;;;;;;22.88;10.95;;;;;;;33.20;78.19;100889.66;5016072;28;66662;-32
2024/03/23 04:58:51;;;;;;;11.60;10.30;;;;;;;33.25;78.16;100883.53;5034464;28;69797;-31
2024/03/23 05:01:20;;;;;;;11.15;10.23;;;;;;;33.22;78.90;100876.66;5031354;28;66341;-32
2024/03/23 05:03:52;;;;;;;10.95;9.90;;;;;;;33.24;78.75;100885.44;5029951;28;69736;-32
2024/03/23 05:06:21;;;;;;;12.65;9.70;;;;;;;33.16;77.69;100877.63;5021428;28;66384;-32
2024/03/23 05:08:50;;;;;;;10.05;9.32;;;;;;;33.10;76.38;100886.72;5015021;28;70267;-32
2024/03/23 05:11:20;;;;;;;11.60;10.23;;;;;;;33.02;75.58;100870.78;5018755;28;66684;-33
2024/03/23 05:13:49;;;;;;;16.15;9.60;;;;;;;33.04;73.99;100874.06;5010875;28;69574;-33
2024/03/23 05:16:18;;;;;;;14.45;8.88;;;;;;;33.06;72.84;100877.38;5027141;28;66293;-32
2024/03/23 05:18:47;;;;;;;15.43;8.75;;;;;;;33.01;71.98;100869.91;5020766;28;69678;-34
2024/03/23 05:21:16;;;;;;;14.80;8.65;;;;;;;32.99;71.07;100871.19;5040514;28;65618;-31
2024/03/23 05:23:45;;;;;;;11.38;7.93;;;;;;;32.90;70.41;100855.25;5023736;28;70560;-36
2024/03/23 05:26:15;;;;;;;8.93;7.75;;;;;;;32.85;69.87;100857.84;5031662;28;66537;-32
2024/03/23 05:28:44;;;;;;;15.07;8.30;;;;;;;32.84;69.84;100853.44;5029223;28;70585;-32
2024/03/23 05:31:22;;;;;;;8.15;7.45;;;;;;;32.76;68.22;100820.38;5043189;28;66302;-33
2024/03/23 05:33:52;;;;;;;11.35;7.60;;;;;;;32.76;68.58;100829.34;5014318;28;69500;-32
2024/03/23 05:36:21;;;;;;;13.40;7.85;;;;;;;32.79;68.83;100828.91;5020333;28;64726;-33
2024/03/23 05:38:50;;;;;;;10.38;7.82;;;;;;;32.76;69.46;100821.19;5021493;28;70108;-33
2024/03/23 05:41:19;;;;;;;16.45;7.30;;;;;;;32.69;69.77;100806.91;5008443;28;66206;-32
2024/03/23 05:43:48;;;;;;;21.65;7.78;;;;;;;32.75;69.92;100805.16;5014839;28;70313;-31
2024/03/23 05:46:17;;;;;;;14.00;8.10;;;;;;;32.78;69.65;100794.63;5037935;28;66113;-31
2024/03/23 05:48:47;;;;;;;31.85;8.00;;;;;;;32.74;68.52;100785.31;5024201;28;69281;-32
2024/03/23 05:51:16;;;;;;;28.30;7.63;;;;;;;32.72;68.60;100787.44;5039360;28;66024;-30
2024/03/23 05:53:45;;;;;;;20.70;6.72;;;;;;;32.74;68.04;100788.03;4996851;28;70075;-31
2024/03/23 05:56:14;;;;;;;17.10;7.15;;;;;;;32.62;66.46;100777.13;5043034;28;66334;-32
2024/03/23 05:58:43;;;;;;;13.02;6.57;;;;;;;32.67;66.00;100782.69;5026568;28;70856;-32
2024/03/23 06:01:12;;;;;;;8.60;6.43;;;;;;;32.63;65.67;100780.69;5048001;28;66672;-32
2024/03/23 06:03:43;;;;;;;15.77;7.13;;;;;;;32.61;64.91;100771.94;5025161;28;71091;-31
2024/03/23 06:06:12;;;;;;;8.70;6.82;;;;;;;32.67;65.58;100777.25;5016569;28;65012;-34
2024/03/23 06:08:41;;;;;;;9.02;5.63;;;;;;;32.67;64.40;100776.44;5048381;28;70059;-32
2024/03/23 06:11:10;;;;;;;10.32;6.03;;;;;;;32.59;64.57;100783.03;5006898;28;66765;-34
2024/03/23 06:13:39;;;;;;;12.43;5.68;;;;;;;32.57;64.09;100770.75;5031480;28;70372;-31
2024/03/23 06:16:08;;;;;;;6.03;5.50;;;;;;;32.53;62.44;100778.53;5030913;28;65964;-32
2024/03/23 06:18:37;;;;;;;5.68;5.25;;;;;;;32.51;63.15;100761.66;5050751;28;69827;-32
2024/03/23 06:21:14;;;;;;;9.32;5.50;;;;;;;32.28;62.21;100724.41;5035265;28;67030;-32
2024/03/23 06:23:47;;;;;;;8.50;4.85;;;;;;;32.56;62.19;100763.69;5029866;28;70630;-30
2024/03/23 06:26:20;;;;;;;5.78;5.28;;;;;;;32.54;63.35;100757.66;5027615;28;66367;-32
2024/03/23 06:28:50;;;;;;;7.93;5.00;;;;;;;32.55;62.55;100752.00;5012805;28;70272;-32
2024/03/23 06:31:19;;;;;;;5.43;4.90;;;;;;;32.53;62.46;100747.84;5020192;28;66382;-31
2024/03/23 06:33:48;;;;;;;5.57;5.00;;;;;;;32.53;62.98;100739.72;5026790;28;69352;-32
2024/03/23 06:36:16;;;;;;;8.73;5.13;;;;;;;32.48;61.71;100735.81;5033291;28;66563;-33
2024/03/23 06:38:45;;;;;;;7.57;5.00;;;;;;;32.47;62.53;100734.16;5025813;28;69882;-32
2024/03/23 06:41:15;;;;;;;5.57;5.15;;;;;;;32.47;62.36;100726.00;5029636;28;66251;-31
2024/03/23 06:43:44;;;;;;;5.68;4.63;;;;;;;32.48;60.95;100724.97;5042109;28;69376;-31
2024/03/23 06:46:13;;;;;;;5.28;4.88;;;;;;;32.52;61.24;100721.78;5025804;28;66595;-32
2024/03/23 06:48:42;;;;;;;5.18;4.72;;;;;;;32.45;60.24;100719.94;5023887;28;70585;-32
2024/03/23 06:51:11;;;;;;;4.72;4.32;;;;;;;32.54;61.23;100725.06;5047168;28;65071;-32
2024/03/23 06:53:40;;;;;;;4.38;4.07;;;;;;;32.52;60.99;100724.50;5025822;28;70795;-31
2024/03/23 06:56:08;;;;;;;4.70;4.40;;;;;;;32.62;61.17;100708.41;5040215;28;65846;-33
2024/03/23 06:58:40;;;;;;;5.30;4.90;;;;;;;32.64;61.16;100712.56;5027584;28;70099;-31
2024/03/23 07:01:09;;;;;;;6.20;4.75;;;;;;;32.65;60.64;100708.78;5046438;28;66228;-34
2024/03/23 07:03:38;;;;;;;5.00;4.70;;;;;;;32.68;61.06;100707.47;5025862;28;70272;-31
2024/03/23 07:06:10;;;;;;;5.20;4.72;;;;;;;32.46;60.24;100667.34;5048918;28;66324;-32
2024/03/23 07:08:47;;;;;;;;;;;;;;;32.66;59.65;100693.31;5029449;28;69047;-31
2024/03/23 07:11:23;;;;;;;6.95;4.22;;;;;;;32.72;59.90;100695.06;5048582;28;66648;-32
2024/03/23 07:13:56;;;;;;;4.80;4.53;;;;;;;32.69;60.27;100687.41;5035726;28;70130;-32
2024/03/23 07:16:27;;;;;;;8.10;4.72;;;;;;;32.74;60.44;100684.81;5025247;28;66276;-31
2024/03/23 07:18:56;;;;;;;4.95;4.63;;;;;;;32.76;60.75;100690.81;5037403;28;69980;-31
2024/03/23 07:21:25;;;;;;;5.38;4.97;;;;;;;32.75;60.09;100686.44;5033143;28;66867;-32
2024/03/23 07:24:03;;;;;;;5.20;4.70;;;;;;;32.70;59.02;100706.16;5045700;28;70940;-30
2024/03/23 07:26:32;;;;;;;5.63;4.53;;;;;;;32.74;60.28;100684.81;5013377;28;65678;-31
2024/03/23 07:29:01;;;;;;;6.50;4.07;;;;;;;32.76;59.91;100688.09;5045533;28;72263;-31
2024/03/23 07:31:30;;;;;;;7.63;4.28;;;;;;;32.82;59.77;100698.03;5026963;28;66057;-34
2024/03/23 07:33:59;;;;;;;5.18;4.78;;;;;;;32.81;59.63;100685.50;5029927;28;70477;-33
2024/03/23 07:36:28;;;;;;;5.32;4.47;;;;;;;32.86;59.34;100687.50;5025442;28;65582;-32
2024/03/23 07:38:57;;;;;;;4.63;4.32;;;;;;;32.83;59.60;100677.94;5047598;28;69927;-33
2024/03/23 07:41:27;;;;;;;5.25;4.75;;;;;;;32.86;59.27;100673.94;5012615;28;66255;-31
2024/03/23 07:43:56;;;;;;;4.25;3.95;;;;;;;32.89;59.34;100663.41;5021531;28;70025;-31
2024/03/23 07:46:25;;;;;;;4.32;4.00;;;;;;;32.90;58.83;100673.22;5035050;28;65272;-34
2024/03/23 07:48:54;;;;;;;4.15;3.85;;;;;;;32.91;59.49;100664.00;5023036;28;70010;-32
2024/03/23 07:51:23;;;;;;;4.65;4.28;;;;;;;32.98;59.06;100663.03;5034280;28;65789;-34
2024/03/23 07:53:53;;;;;;;4.15;3.85;;;;;;;32.98;58.97;100679.31;5023914;28;70081;-33
2024/03/23 07:56:23;;;;;;;4.30;4.00;;;;;;;33.00;58.85;100671.81;5023568;28;66524;-34
2024/03/23 07:58:52;;;;;;;4.47;4.10;;;;;;;32.97;58.79;100662.19;4992769;28;68968;-33
2024/03/23 08:01:21;;;;;;;4.63;4.32;;;;;;;33.03;58.35;100649.59;5024603;28;66535;-32
2024/03/23 08:03:50;;;;;;;4.05;3.75;;;;;;;33.07;58.61;100667.91;5029586;28;70371;-32
2024/03/23 08:06:22;;;;;;;5.18;3.97;;;;;;;33.09;58.33;100662.19;5047051;28;66131;-33
2024/03/23 08:09:01;;;;;;;4.28;3.97;;;;;;;33.12;58.49;100659.00;5031769;28;69400;-34
2024/03/23 08:11:32;;;;;;;4.28;3.88;;;;;;;33.13;59.11;100644.34;5027762;28;65769;-33
2024/03/23 08:14:01;;;;;;;4.70;3.85;;;;;;;33.26;59.54;100654.94;5025422;28;70329;-33
2024/03/23 08:16:30;;;;;;;14.38;4.97;;;;;;;33.22;62.23;100656.50;5020285;28;65228;-32
2024/03/23 08:18:59;;;;;;;16.92;5.53;;;;;;;33.34;63.02;100651.81;5030437;28;69286;-31
2024/03/23 08:21:29;;;;;;;25.52;6.50;;;;;;;33.57;65.67;100644.66;5023298;28;66493;-33
2024/03/23 08:23:57;;;;;;;25.88;6.97;;;;;;;33.70;67.83;100647.06;5018283;28;70164;-34
2024/03/23 08:26:27;;;;;;;15.43;6.07;;;;;;;33.77;68.44;100650.47;5041012;28;66568;-33
2024/03/23 08:28:55;;;;;;;12.40;6.28;;;;;;;33.89;69.00;100642.22;5044379;28;69257;-33
2024/03/23 08:31:25;;;;;;;13.18;6.55;;;;;;;33.99;70.31;100647.84;5028637;28;66183;-33
2024/03/23 08:33:54;;;;;;;20.67;6.50;;;;;;;34.07;69.96;100643.91;5051478;28;70896;-33
2024/03/23 08:36:23;;;;;;;13.88;6.40;;;;;;;34.13;70.15;100648.38;5012662;28;65705;-33
2024/03/23 08:38:53;;;;;;;14.60;6.32;;;;;;;34.24;70.50;100649.34;5044347;28;70757;-33
2024/03/23 08:41:22;;;;;;;19.45;7.35;;;;;;;34.29;71.22;100640.44;5015297;28;66763;-34
2024/03/23 08:43:51;;;;;;;7.20;6.05;;;;;;;34.37;70.60;100648.19;5017748;28;69793;-36
2024/03/23 08:46:20;;;;;;;15.88;6.22;;;;;;;34.53;70.65;100652.78;5019414;28;66105;-36
2024/03/23 08:48:50;;;;;;;10.93;6.63;;;;;;;34.62;70.72;100651.28;4991252;28;69618;-34
2024/03/23 08:51:19;;;;;;;25.77;7.57;;;;;;;34.73;70.80;100657.72;5024908;28;66282;-35
2024/03/23 08:53:48;;;;;;;9.43;6.30;;;;;;;34.78;70.58;100660.50;5031288;28;70668;-34
2024/03/23 08:56:17;;;;;;;11.80;7.13;;;;;;;34.83;70.88;100662.47;5020699;28;65951;-36
2024/03/23 08:58:46;;;;;;;12.57;6.30;;;;;;;34.87;70.93;100653.53;5020695;28;70344;-33
2024/03/23 09:01:15;;;;;;;18.92;5.45;;;;;;;34.94;70.70;100658.81;5020187;28;66900;-36
2024/03/23 09:03:44;;;;;;;9.75;5.80;;;;;;;34.99;70.37;100656.13;5018378;28;70022;-36
2024/03/23 09:06:14;;;;;;;8.88;5.60;;;;;;;34.94;70.82;100647.91;5055447;28;66350;-34
2024/03/23 09:08:43;;;;;;;15.00;5.32;;;;;;;35.02;70.24;100661.09;5036398;28;70585;-35
2024/03/23 09:11:13;;;;;;;12.27;5.20;;;;;;;35.12;70.66;100665.84;5011550;28;65374;-34
2024/03/23 09:13:42;;;;;;;15.55;5.70;;;;;;;35.13;69.84;100654.72;5020719;28;69760;-36
2024/03/23 09:16:11;;;;;;;7.63;6.00;;;;;;;35.13;69.54;100649.25;5021979;28;65123;-36
2024/03/23 09:18:40;;;;;;;7.10;4.85;;;;;;;35.25;69.64;100670.09;5023653;28;70363;-35
2024/03/23 09:21:16;;;;;;;8.65;5.30;;;;;;;35.28;69.35;100658.69;5021980;28;66338;-37
2024/03/23 09:23:46;;;;;;;12.68;5.25;;;;;;;35.28;69.17;100667.69;5029683;28;70292;-37
2024/03/23 09:26:14;;;;;;;24.80;6.60;;;;;;;35.44;69.36;100668.69;5037479;28;66506;-36
2024/03/23 09:28:43;;;;;;;10.63;5.82;;;;;;;35.37;68.98;100678.97;5034350;28;70120;-37
2024/03/23 09:31:15;;;;;;;9.38;5.57;;;;;;;35.44;69.34;100674.13;5035541;28;65558;-35
2024/03/23 09:33:45;;;;;;;8.55;5.45;;;;;;;35.48;69.08;100678.00;5030865;28;69916;-37
2024/03/23 09:36:13;;;;;;;6.95;5.07;;;;;;;35.46;68.81;100676.59;5032904;28;65755;-35
2024/03/23 09:38:42;;;;;;;9.98;5.50;;;;;;;35.51;69.00;100685.66;5047926;28;70570;-35
2024/03/23 09:41:12;;;;;;;10.52;6.22;;;;;;;35.48;68.45;100679.91;5033038;28;65581;-34
2024/03/23 09:43:41;;;;;;;14.10;5.72;;;;;;;35.56;69.01;100688.47;5031392;28;70255;-35
2024/03/23 09:46:10;;;;;;;10.48;6.50;;;;;;;35.61;69.79;100686.88;5034510;28;65301;-34
2024/03/23 09:48:39;;;;;;;14.38;6.50;;;;;;;35.65;70.00;100679.81;5021885;28;69684;-37
2024/03/23 09:51:08;;;;;;;19.27;6.53;;;;;;;35.64;70.35;100679.00;5019596;28;66087;-36
2024/03/23 09:53:38;;;;;;;23.63;6.07;;;;;;;35.71;71.27;100685.06;5031641;28;70038;-35
2024/03/23 09:56:08;;;;;;;11.95;5.20;;;;;;;35.77;70.66;100675.88;5035006;28;66038;-35
2024/03/23 09:58:38;;;;;;;11.13;4.93;;;;;;;35.79;72.01;100681.06;5027726;28;69999;-35
2024/03/23 10:01:11;;;;;;;13.48;5.95;;;;;;;35.79;72.20;100686.50;5026202;28;65892;-34
2024/03/23 10:03:46;;;;;;;13.02;5.25;;;;;;;35.79;71.68;100681.06;5022718;28;70396;-33
2024/03/23 10:06:24;;;;;;;7.78;4.97;;;;;;;35.73;71.41;100649.34;5020892;28;65134;-34
2024/03/23 10:08:54;;;;;;;15.18;5.43;;;;;;;35.91;71.81;100683.59;5020047;28;69674;-33
2024/03/23 10:11:25;;;;;;;16.25;5.93;;;;;;;35.89;72.31;100681.16;5021653;28;66647;-34
2024/03/23 10:13:56;;;;;;;29.08;8.40;;;;;;;35.93;70.99;100687.72;5001918;28;69314;-34
2024/03/23 10:16:29;;;;;;;17.20;7.40;;;;;;;35.89;71.42;100688.53;5001825;28;66114;-33
2024/03/23 10:19:01;;;;;;;12.63;6.28;;;;;;;35.87;71.45;100682.50;5018886;28;70563;-35
2024/03/23 10:21:30;;;;;;;29.13;6.35;;;;;;;35.93;71.03;100701.38;5028395;28;65935;-36
2024/03/23 10:24:09;;;;;;;24.23;6.32;;;;;;;35.90;71.88;100688.25;5041380;28;69980;-34
2024/03/23 10:26:38;;;;;;;52.00;6.00;;;;;;;35.89;71.24;100703.00;5019804;28;65791;-36
2024/03/23 10:29:12;;;;;;;44.10;6.35;;;;;;;35.93;71.38;100700.56;5041576;28;69527;-36
2024/03/23 10:31:41;;;;;;;22.75;5.35;;;;;;;35.97;71.48;100702.50;5000685;28;66692;-33
2024/03/23 10:34:13;;;;;;;20.95;5.22;;;;;;;35.80;70.09;100677.22;5027594;28;70647;-36
2024/03/23 10:36:43;;;;;;;14.43;5.22;;;;;;;35.82;69.76;100713.28;5030509;28;66490;-35
2024/03/23 10:39:17;;;;;;;8.02;4.80;;;;;;;35.87;68.97;100718.78;5022918;28;71171;-36
2024/03/23 10:41:47;;;;;;;6.25;4.35;;;;;;;35.81;69.54;100722.56;5038860;28;66391;-35
2024/03/23 10:44:19;;;;;;;11.50;4.72;;;;;;;35.64;69.10;100697.28;5039203;28;70924;-35
2024/03/23 10:46:49;;;;;;;8.55;4.40;;;;;;;35.82;69.05;100726.94;5021455;28;66026;-34
2024/03/23 10:49:17;;;;;;;7.13;3.95;;;;;;;35.76;69.35;100725.22;5025159;28;70208;-34
2024/03/23 10:51:47;;;;;;;9.27;3.78;;;;;;;35.72;69.68;100724.94;5020913;28;65784;-33
2024/03/23 10:54:15;;;;;;;9.68;4.25;;;;;;;35.71;69.80;100722.44;5010918;28;69493;-34
2024/03/23 10:56:46;;;;;;;7.40;4.20;;;;;;;35.69;69.74;100728.19;5025009;28;65039;-35
2024/03/23 10:59:16;;;;;;;6.18;4.15;;;;;;;35.66;70.24;100725.13;5027103;28;70093;-36
2024/03/23 11:01:56;;;;;;;6.75;4.15;;;;;;;35.45;69.69;100703.06;5020514;28;66232;-36
2024/03/23 11:04:34;;;;;;;7.25;4.20;;;;;;;35.57;70.60;100741.94;5032338;28;70398;-35
2024/03/23 11:07:23;;;;;;;10.80;4.40;;;;;;;35.54;71.14;100736.97;5023364;28;66558;-34
2024/03/23 11:09:52;;;;;;;4.32;3.92;;;;;;;35.52;70.50;100735.56;5036923;28;69634;-34
2024/03/23 11:12:24;;;;;;;5.35;4.47;;;;;;;35.49;71.54;100753.28;5038053;28;66804;-35
2024/03/23 11:15:04;;;;;;;7.32;4.28;;;;;;;35.44;71.93;100757.84;5050061;28;70137;-35
2024/03/23 11:17:33;;;;;;;7.50;4.30;;;;;;;35.35;71.58;100752.03;5035233;28;66532;-34
2024/03/23 11:20:05;;;;;;;8.68;4.40;;;;;;;35.38;71.67;100756.97;5036711;28;70533;-36
2024/03/23 11:22:46;;;;;;;;;;;;;;;35.24;73.43;100759.25;5022509;28;66095;-34
2024/03/23 11:25:22;;;;;;;5.00;4.60;;;;;;;35.29;72.17;100763.94;5021157;28;70229;-34
2024/03/23 11:28:11;;;;;;;5.63;5.10;;;;;;;35.17;74.08;100772.25;5026729;28;65386;-36
2024/03/23 11:30:40;;;;;;;10.82;5.82;;;;;;;35.19;72.68;100763.81;5009297;28;70260;-34